sensor_id;sensor_type;location;lat;lon;timestamp;P1;durP1;ratioP1;P2;durP2;ratioP2
9906;SDS011;4992;51.628;6.664;2022-09-09T00:01:09;3.13;;;0.95;;
9906;SDS011;4992;51.628;6.664;2022-09-09T00:03:54;4.85;;;1.00;;
9906;SDS011;4992;51.628;6.664;2022-09-09T00:06:31;1.45;;;0.95;;
9906;SDS011;4992;51.628;6.664;2022-09-09T00:09:12;3.63;;;1.00;;
9906;SDS011;4992;51.628;6.664;2022-09-09T00:11:49;2.38;;;0.93;;
9906;SDS011;4992;51.628;6.664;2022-09-09T00:17:02;0.95;;;0.82;;
9906;SDS011;4992;51.628;6.664;2022-09-09T00:22:23;1.42;;;1.00;;
9906;SDS011;4992;51.628;6.664;2022-09-09T00:24:52;2.75;;;0.90;;
9906;SDS011;4992;51.628;6.664;2022-09-09T00:27:30;3.95;;;0.95;;
9906;SDS011;4992;51.628;6.664;2022-09-09T00:32:37;2.17;;;0.90;;
9906;SDS011;4992;51.628;6.664;2022-09-09T00:35:15;3.95;;;1.08;;
9906;SDS011;4992;51.628;6.664;2022-09-09T00:38:03;2.15;;;1.25;;
9906;SDS011;4992;51.628;6.664;2022-09-09T00:40:58;1.33;;;0.75;;
9906;SDS011;4992;51.628;6.664;2022-09-09T00:43:35;0.73;;;0.70;;
9906;SDS011;4992;51.628;6.664;2022-09-09T01:02:39;1.17;;;1.08;;
9906;SDS011;4992;51.628;6.664;2022-09-09T01:05:20;0.82;;;0.82;;
9906;SDS011;4992;51.628;6.664;2022-09-09T01:08:05;1.08;;;1.05;;
9906;SDS011;4992;51.628;6.664;2022-09-09T01:10:53;2.03;;;1.27;;
9906;SDS011;4992;51.628;6.664;2022-09-09T01:13:24;9.23;;;1.13;;
9906;SDS011;4992;51.628;6.664;2022-09-09T01:15:55;3.28;;;1.20;;
9906;SDS011;4992;51.628;6.664;2022-09-09T01:18:25;1.27;;;1.17;;
9906;SDS011;4992;51.628;6.664;2022-09-09T01:26:47;3.33;;;1.60;;
9906;SDS011;4992;51.628;6.664;2022-09-09T01:29:17;4.15;;;1.80;;
9906;SDS011;4992;51.628;6.664;2022-09-09T01:31:53;4.43;;;1.88;;
9906;SDS011;4992;51.628;6.664;2022-09-09T01:34:21;2.15;;;1.58;;
9906;SDS011;4992;51.628;6.664;2022-09-09T01:36:53;2.88;;;1.55;;
9906;SDS011;4992;51.628;6.664;2022-09-09T01:39:32;3.60;;;1.90;;
9906;SDS011;4992;51.628;6.664;2022-09-09T01:41:59;4.82;;;1.65;;
9906;SDS011;4992;51.628;6.664;2022-09-09T01:44:26;3.60;;;1.80;;
9906;SDS011;4992;51.628;6.664;2022-09-09T01:46:53;1.92;;;1.50;;
9906;SDS011;4992;51.628;6.664;2022-09-09T01:49:18;3.20;;;1.35;;
9906;SDS011;4992;51.628;6.664;2022-09-09T01:51:44;1.98;;;1.58;;
9906;SDS011;4992;51.628;6.664;2022-09-09T01:54:14;1.83;;;1.20;;
9906;SDS011;4992;51.628;6.664;2022-09-09T01:56:47;3.10;;;1.50;;
9906;SDS011;4992;51.628;6.664;2022-09-09T01:59:23;2.13;;;1.40;;
9906;SDS011;4992;51.628;6.664;2022-09-09T02:02:04;2.85;;;1.40;;
9906;SDS011;4992;51.628;6.664;2022-09-09T02:04:43;5.88;;;1.40;;
9906;SDS011;4992;51.628;6.664;2022-09-09T02:09:57;1.70;;;1.50;;
9906;SDS011;4992;51.628;6.664;2022-09-09T02:12:27;3.40;;;1.38;;
9906;SDS011;4992;51.628;6.664;2022-09-09T02:14:56;4.40;;;1.83;;
9906;SDS011;4992;51.628;6.664;2022-09-09T02:17:28;5.35;;;2.20;;
9906;SDS011;4992;51.628;6.664;2022-09-09T02:20:05;2.22;;;1.90;;
9906;SDS011;4992;51.628;6.664;2022-09-09T02:22:33;5.00;;;2.95;;
9906;SDS011;4992;51.628;6.664;2022-09-09T02:25:01;5.30;;;2.90;;
9906;SDS011;4992;51.628;6.664;2022-09-09T02:27:30;3.83;;;2.47;;
9906;SDS011;4992;51.628;6.664;2022-09-09T02:29:56;3.95;;;3.45;;
9906;SDS011;4992;51.628;6.664;2022-09-09T02:32:23;6.80;;;3.80;;
9906;SDS011;4992;51.628;6.664;2022-09-09T02:34:56;7.10;;;3.83;;
9906;SDS011;4992;51.628;6.664;2022-09-09T02:37:27;6.38;;;4.80;;
9906;SDS011;4992;51.628;6.664;2022-09-09T02:40:00;5.82;;;5.03;;
9906;SDS011;4992;51.628;6.664;2022-09-09T02:42:27;9.27;;;5.57;;
9906;SDS011;4992;51.628;6.664;2022-09-09T02:44:52;8.27;;;5.45;;
9906;SDS011;4992;51.628;6.664;2022-09-09T02:47:53;8.68;;;5.68;;
9906;SDS011;4992;51.628;6.664;2022-09-09T02:50:12;8.50;;;5.30;;
9906;SDS011;4992;51.628;6.664;2022-09-09T02:58:10;7.47;;;5.20;;
9906;SDS011;4992;51.628;6.664;2022-09-09T03:00:42;10.65;;;5.70;;
9906;SDS011;4992;51.628;6.664;2022-09-09T03:03:08;7.43;;;5.70;;
9906;SDS011;4992;51.628;6.664;2022-09-09T03:05:34;8.55;;;5.40;;
9906;SDS011;4992;51.628;6.664;2022-09-09T03:08:00;6.88;;;5.32;;
9906;SDS011;4992;51.628;6.664;2022-09-09T03:10:27;8.77;;;5.18;;
9906;SDS011;4992;51.628;6.664;2022-09-09T03:12:52;7.10;;;4.97;;
9906;SDS011;4992;51.628;6.664;2022-09-09T03:15:18;6.38;;;5.10;;
9906;SDS011;4992;51.628;6.664;2022-09-09T03:17:43;5.63;;;4.68;;
9906;SDS011;4992;51.628;6.664;2022-09-09T03:20:09;6.72;;;4.85;;
9906;SDS011;4992;51.628;6.664;2022-09-09T03:22:35;7.60;;;4.97;;
9906;SDS011;4992;51.628;6.664;2022-09-09T03:25:01;7.65;;;4.47;;
9906;SDS011;4992;51.628;6.664;2022-09-09T03:27:27;6.32;;;4.10;;
9906;SDS011;4992;51.628;6.664;2022-09-09T03:29:53;9.82;;;4.30;;
9906;SDS011;4992;51.628;6.664;2022-09-09T03:32:19;4.22;;;3.47;;
9906;SDS011;4992;51.628;6.664;2022-09-09T03:34:47;8.35;;;3.40;;
9906;SDS011;4992;51.628;6.664;2022-09-09T03:37:14;5.63;;;3.63;;
9906;SDS011;4992;51.628;6.664;2022-09-09T03:39:42;5.47;;;3.35;;
9906;SDS011;4992;51.628;6.664;2022-09-09T03:42:08;5.60;;;3.05;;
9906;SDS011;4992;51.628;6.664;2022-09-09T03:44:33;3.78;;;2.55;;
9906;SDS011;4992;51.628;6.664;2022-09-09T03:46:59;8.48;;;2.78;;
9906;SDS011;4992;51.628;6.664;2022-09-09T03:49:25;5.55;;;2.60;;
9906;SDS011;4992;51.628;6.664;2022-09-09T03:51:53;7.50;;;3.20;;
9906;SDS011;4992;51.628;6.664;2022-09-09T03:54:19;6.90;;;2.42;;
9906;SDS011;4992;51.628;6.664;2022-09-09T03:56:45;6.38;;;2.58;;
9906;SDS011;4992;51.628;6.664;2022-09-09T03:59:10;5.30;;;2.47;;
9906;SDS011;4992;51.628;6.664;2022-09-09T04:01:36;5.13;;;2.25;;
9906;SDS011;4992;51.628;6.664;2022-09-09T04:04:02;3.67;;;2.67;;
9906;SDS011;4992;51.628;6.664;2022-09-09T04:06:27;6.43;;;2.60;;
9906;SDS011;4992;51.628;6.664;2022-09-09T04:08:54;4.97;;;2.40;;
9906;SDS011;4992;51.628;6.664;2022-09-09T04:11:20;5.00;;;2.80;;
9906;SDS011;4992;51.628;6.664;2022-09-09T04:13:46;8.88;;;3.03;;
9906;SDS011;4992;51.628;6.664;2022-09-09T04:16:12;8.00;;;2.13;;
9906;SDS011;4992;51.628;6.664;2022-09-09T04:18:41;9.68;;;2.72;;
9906;SDS011;4992;51.628;6.664;2022-09-09T04:21:08;3.63;;;2.28;;
9906;SDS011;4992;51.628;6.664;2022-09-09T04:23:35;7.32;;;2.80;;
9906;SDS011;4992;51.628;6.664;2022-09-09T04:26:01;5.53;;;2.50;;
9906;SDS011;4992;51.628;6.664;2022-09-09T04:28:31;6.32;;;2.65;;
9906;SDS011;4992;51.628;6.664;2022-09-09T04:31:14;7.45;;;2.70;;
9906;SDS011;4992;51.628;6.664;2022-09-09T04:33:45;6.50;;;2.45;;
9906;SDS011;4992;51.628;6.664;2022-09-09T04:36:11;7.45;;;3.20;;
9906;SDS011;4992;51.628;6.664;2022-09-09T04:38:37;9.07;;;2.58;;
9906;SDS011;4992;51.628;6.664;2022-09-09T04:41:03;6.72;;;2.47;;
9906;SDS011;4992;51.628;6.664;2022-09-09T04:43:29;11.55;;;2.83;;
9906;SDS011;4992;51.628;6.664;2022-09-09T04:45:55;9.77;;;2.70;;
9906;SDS011;4992;51.628;6.664;2022-09-09T04:48:21;8.05;;;2.72;;
9906;SDS011;4992;51.628;6.664;2022-09-09T04:53:29;9.73;;;2.75;;
9906;SDS011;4992;51.628;6.664;2022-09-09T04:56:02;8.95;;;3.00;;
9906;SDS011;4992;51.628;6.664;2022-09-09T04:58:32;5.88;;;2.90;;
9906;SDS011;4992;51.628;6.664;2022-09-09T05:01:07;8.15;;;2.67;;
9906;SDS011;4992;51.628;6.664;2022-09-09T05:03:34;9.50;;;2.75;;
9906;SDS011;4992;51.628;6.664;2022-09-09T05:06:04;8.00;;;2.53;;
9906;SDS011;4992;51.628;6.664;2022-09-09T05:08:31;6.72;;;2.20;;
9906;SDS011;4992;51.628;6.664;2022-09-09T05:10:57;8.00;;;2.47;;
9906;SDS011;4992;51.628;6.664;2022-09-09T05:13:24;6.03;;;2.35;;
9906;SDS011;4992;51.628;6.664;2022-09-09T05:15:53;5.80;;;2.60;;
9906;SDS011;4992;51.628;6.664;2022-09-09T05:18:20;9.32;;;2.90;;
9906;SDS011;4992;51.628;6.664;2022-09-09T05:20:47;8.68;;;2.65;;
9906;SDS011;4992;51.628;6.664;2022-09-09T05:23:13;6.45;;;3.00;;
9906;SDS011;4992;51.628;6.664;2022-09-09T05:25:39;12.73;;;2.58;;
9906;SDS011;4992;51.628;6.664;2022-09-09T05:28:06;6.65;;;2.70;;
9906;SDS011;4992;51.628;6.664;2022-09-09T05:30:32;6.47;;;2.47;;
9906;SDS011;4992;51.628;6.664;2022-09-09T05:32:58;10.13;;;2.90;;
9906;SDS011;4992;51.628;6.664;2022-09-09T05:35:24;7.53;;;2.42;;
9906;SDS011;4992;51.628;6.664;2022-09-09T05:37:50;10.93;;;2.75;;
9906;SDS011;4992;51.628;6.664;2022-09-09T05:40:15;7.60;;;2.63;;
9906;SDS011;4992;51.628;6.664;2022-09-09T05:42:41;8.65;;;2.22;;
9906;SDS011;4992;51.628;6.664;2022-09-09T05:45:07;7.13;;;2.65;;
9906;SDS011;4992;51.628;6.664;2022-09-09T05:47:33;8.32;;;2.60;;
9906;SDS011;4992;51.628;6.664;2022-09-09T05:50:00;8.00;;;2.60;;
9906;SDS011;4992;51.628;6.664;2022-09-09T05:52:26;9.23;;;2.63;;
9906;SDS011;4992;51.628;6.664;2022-09-09T05:54:52;6.90;;;2.50;;
9906;SDS011;4992;51.628;6.664;2022-09-09T05:57:18;9.10;;;2.30;;
9906;SDS011;4992;51.628;6.664;2022-09-09T05:59:44;8.45;;;2.55;;
9906;SDS011;4992;51.628;6.664;2022-09-09T06:02:09;10.70;;;2.90;;
9906;SDS011;4992;51.628;6.664;2022-09-09T06:04:35;9.95;;;3.50;;
9906;SDS011;4992;51.628;6.664;2022-09-09T06:07:00;9.93;;;2.88;;
9906;SDS011;4992;51.628;6.664;2022-09-09T06:09:26;9.93;;;3.40;;
9906;SDS011;4992;51.628;6.664;2022-09-09T06:11:51;9.38;;;3.83;;
9906;SDS011;4992;51.628;6.664;2022-09-09T06:14:19;12.77;;;3.53;;
9906;SDS011;4992;51.628;6.664;2022-09-09T06:16:45;9.07;;;4.10;;
9906;SDS011;4992;51.628;6.664;2022-09-09T06:19:11;8.02;;;3.53;;
9906;SDS011;4992;51.628;6.664;2022-09-09T06:21:37;11.50;;;3.80;;
9906;SDS011;4992;51.628;6.664;2022-09-09T06:24:03;10.82;;;4.15;;
9906;SDS011;4992;51.628;6.664;2022-09-09T06:26:30;9.15;;;3.75;;
9906;SDS011;4992;51.628;6.664;2022-09-09T06:28:59;9.73;;;3.00;;
9906;SDS011;4992;51.628;6.664;2022-09-09T06:31:28;3.47;;;2.47;;
9906;SDS011;4992;51.628;6.664;2022-09-09T06:33:58;7.85;;;2.70;;
9906;SDS011;4992;51.628;6.664;2022-09-09T06:36:25;11.35;;;2.70;;
9906;SDS011;4992;51.628;6.664;2022-09-09T06:38:56;10.05;;;2.35;;
9906;SDS011;4992;51.628;6.664;2022-09-09T06:41:23;6.57;;;2.30;;
9906;SDS011;4992;51.628;6.664;2022-09-09T06:43:51;9.75;;;2.83;;
9906;SDS011;4992;51.628;6.664;2022-09-09T06:46:21;10.30;;;2.33;;
9906;SDS011;4992;51.628;6.664;2022-09-09T06:48:52;9.15;;;2.45;;
9906;SDS011;4992;51.628;6.664;2022-09-09T06:51:20;9.40;;;1.80;;
9906;SDS011;4992;51.628;6.664;2022-09-09T06:53:50;7.68;;;1.88;;
9906;SDS011;4992;51.628;6.664;2022-09-09T06:56:18;6.07;;;1.80;;
9906;SDS011;4992;51.628;6.664;2022-09-09T06:58:47;8.20;;;1.73;;
9906;SDS011;4992;51.628;6.664;2022-09-09T07:01:17;5.80;;;1.70;;
9906;SDS011;4992;51.628;6.664;2022-09-09T07:03:54;6.43;;;1.75;;
9906;SDS011;4992;51.628;6.664;2022-09-09T07:06:28;6.45;;;1.45;;
9906;SDS011;4992;51.628;6.664;2022-09-09T07:08:56;4.15;;;1.60;;
9906;SDS011;4992;51.628;6.664;2022-09-09T07:11:24;10.18;;;2.08;;
9906;SDS011;4992;51.628;6.664;2022-09-09T07:13:52;7.82;;;1.80;;
9906;SDS011;4992;51.628;6.664;2022-09-09T07:16:19;7.80;;;2.38;;
9906;SDS011;4992;51.628;6.664;2022-09-09T07:18:46;5.22;;;1.33;;
9906;SDS011;4992;51.628;6.664;2022-09-09T07:21:12;6.57;;;1.23;;
9906;SDS011;4992;51.628;6.664;2022-09-09T07:23:39;5.15;;;1.38;;
9906;SDS011;4992;51.628;6.664;2022-09-09T07:26:19;3.70;;;1.52;;
9906;SDS011;4992;51.628;6.664;2022-09-09T07:28:46;5.78;;;1.55;;
9906;SDS011;4992;51.628;6.664;2022-09-09T07:31:17;3.45;;;1.10;;
9906;SDS011;4992;51.628;6.664;2022-09-09T07:33:44;5.28;;;1.15;;
9906;SDS011;4992;51.628;6.664;2022-09-09T07:36:14;4.07;;;1.20;;
9906;SDS011;4992;51.628;6.664;2022-09-09T07:38:43;3.35;;;1.20;;
9906;SDS011;4992;51.628;6.664;2022-09-09T07:41:11;6.85;;;1.90;;
9906;SDS011;4992;51.628;6.664;2022-09-09T07:43:39;5.63;;;1.50;;
9906;SDS011;4992;51.628;6.664;2022-09-09T07:46:06;6.65;;;1.60;;
9906;SDS011;4992;51.628;6.664;2022-09-09T07:48:33;5.72;;;0.98;;
9906;SDS011;4992;51.628;6.664;2022-09-09T07:51:06;9.57;;;1.50;;
9906;SDS011;4992;51.628;6.664;2022-09-09T07:53:33;7.43;;;1.63;;
9906;SDS011;4992;51.628;6.664;2022-09-09T07:56:05;6.05;;;1.35;;
9906;SDS011;4992;51.628;6.664;2022-09-09T07:58:32;4.85;;;1.02;;
9906;SDS011;4992;51.628;6.664;2022-09-09T08:00:57;6.95;;;1.27;;
9906;SDS011;4992;51.628;6.664;2022-09-09T08:03:23;4.70;;;1.20;;
9906;SDS011;4992;51.628;6.664;2022-09-09T08:05:48;6.35;;;1.33;;
9906;SDS011;4992;51.628;6.664;2022-09-09T08:08:14;5.30;;;1.65;;
9906;SDS011;4992;51.628;6.664;2022-09-09T08:10:41;8.75;;;1.90;;
9906;SDS011;4992;51.628;6.664;2022-09-09T08:13:08;5.32;;;0.85;;
9906;SDS011;4992;51.628;6.664;2022-09-09T08:15:34;7.03;;;1.40;;
9906;SDS011;4992;51.628;6.664;2022-09-09T08:18:00;6.90;;;1.48;;
9906;SDS011;4992;51.628;6.664;2022-09-09T08:20:25;4.63;;;1.35;;
9906;SDS011;4992;51.628;6.664;2022-09-09T08:22:51;6.03;;;1.17;;
9906;SDS011;4992;51.628;6.664;2022-09-09T08:25:16;12.43;;;1.63;;
9906;SDS011;4992;51.628;6.664;2022-09-09T08:27:42;4.55;;;1.00;;
9906;SDS011;4992;51.628;6.664;2022-09-09T08:30:08;6.68;;;1.00;;
9906;SDS011;4992;51.628;6.664;2022-09-09T08:32:34;3.67;;;0.90;;
9906;SDS011;4992;51.628;6.664;2022-09-09T08:35:00;4.93;;;1.02;;
9906;SDS011;4992;51.628;6.664;2022-09-09T08:37:25;5.20;;;1.35;;
9906;SDS011;4992;51.628;6.664;2022-09-09T08:39:51;4.38;;;1.00;;
9906;SDS011;4992;51.628;6.664;2022-09-09T08:47:52;3.03;;;0.80;;
9906;SDS011;4992;51.628;6.664;2022-09-09T08:50:35;4.53;;;0.98;;
9906;SDS011;4992;51.628;6.664;2022-09-09T08:53:26;6.00;;;0.90;;
9906;SDS011;4992;51.628;6.664;2022-09-09T08:55:59;6.50;;;1.15;;
9906;SDS011;4992;51.628;6.664;2022-09-09T08:58:27;4.47;;;1.27;;
9906;SDS011;4992;51.628;6.664;2022-09-09T09:11:24;4.35;;;1.38;;
9906;SDS011;4992;51.628;6.664;2022-09-09T09:13:52;3.45;;;0.82;;
9906;SDS011;4992;51.628;6.664;2022-09-09T09:16:33;4.90;;;1.08;;
9906;SDS011;4992;51.628;6.664;2022-09-09T09:19:03;6.60;;;0.75;;
9906;SDS011;4992;51.628;6.664;2022-09-09T09:23:59;6.93;;;1.08;;
9906;SDS011;4992;51.628;6.664;2022-09-09T09:26:29;4.30;;;0.80;;
9906;SDS011;4992;51.628;6.664;2022-09-09T09:28:57;6.00;;;1.33;;
9906;SDS011;4992;51.628;6.664;2022-09-09T09:31:24;5.43;;;0.90;;
9906;SDS011;4992;51.628;6.664;2022-09-09T09:33:55;5.15;;;0.80;;
9906;SDS011;4992;51.628;6.664;2022-09-09T09:36:24;7.18;;;1.20;;
9906;SDS011;4992;51.628;6.664;2022-09-09T09:39:00;6.68;;;0.75;;
9906;SDS011;4992;51.628;6.664;2022-09-09T09:41:41;2.55;;;0.98;;
9906;SDS011;4992;51.628;6.664;2022-09-09T09:44:24;6.90;;;1.52;;
9906;SDS011;4992;51.628;6.664;2022-09-09T09:47:05;2.65;;;1.00;;
9906;SDS011;4992;51.628;6.664;2022-09-09T09:49:32;4.88;;;1.00;;
9906;SDS011;4992;51.628;6.664;2022-09-09T09:52:02;2.00;;;0.85;;
9906;SDS011;4992;51.628;6.664;2022-09-09T09:54:29;3.90;;;1.00;;
9906;SDS011;4992;51.628;6.664;2022-09-09T09:57:11;2.03;;;0.60;;
9906;SDS011;4992;51.628;6.664;2022-09-09T09:59:39;2.38;;;0.90;;
9906;SDS011;4992;51.628;6.664;2022-09-09T10:02:15;4.25;;;0.80;;
9906;SDS011;4992;51.628;6.664;2022-09-09T10:04:43;2.58;;;0.80;;
9906;SDS011;4992;51.628;6.664;2022-09-09T10:07:15;3.65;;;0.52;;
9906;SDS011;4992;51.628;6.664;2022-09-09T10:09:44;2.83;;;0.82;;
9906;SDS011;4992;51.628;6.664;2022-09-09T10:12:23;3.60;;;0.88;;
9906;SDS011;4992;51.628;6.664;2022-09-09T10:17:42;5.18;;;0.73;;
9906;SDS011;4992;51.628;6.664;2022-09-09T10:23:13;3.03;;;0.85;;
9906;SDS011;4992;51.628;6.664;2022-09-09T10:26:08;2.42;;;0.93;;
9906;SDS011;4992;51.628;6.664;2022-09-09T10:28:54;2.58;;;0.80;;
9906;SDS011;4992;51.628;6.664;2022-09-09T10:34:20;1.70;;;0.60;;
9906;SDS011;4992;51.628;6.664;2022-09-09T10:40:00;1.88;;;0.60;;
9906;SDS011;4992;51.628;6.664;2022-09-09T10:42:44;3.30;;;0.70;;
9906;SDS011;4992;51.628;6.664;2022-09-09T10:45:16;2.60;;;0.88;;
9906;SDS011;4992;51.628;6.664;2022-09-09T10:50:29;2.45;;;0.80;;
9906;SDS011;4992;51.628;6.664;2022-09-09T10:53:11;4.40;;;0.82;;
9906;SDS011;4992;51.628;6.664;2022-09-09T10:55:50;4.93;;;1.00;;
9906;SDS011;4992;51.628;6.664;2022-09-09T10:58:25;3.33;;;0.90;;
9906;SDS011;4992;51.628;6.664;2022-09-09T11:00:59;2.45;;;0.50;;
9906;SDS011;4992;51.628;6.664;2022-09-09T11:03:32;3.72;;;0.60;;
9906;SDS011;4992;51.628;6.664;2022-09-09T11:06:10;6.15;;;0.93;;
9906;SDS011;4992;51.628;6.664;2022-09-09T11:08:41;4.35;;;0.90;;
9906;SDS011;4992;51.628;6.664;2022-09-09T11:11:16;3.72;;;0.75;;
9906;SDS011;4992;51.628;6.664;2022-09-09T11:16:39;3.70;;;0.70;;
9906;SDS011;4992;51.628;6.664;2022-09-09T11:19:39;2.10;;;0.57;;
9906;SDS011;4992;51.628;6.664;2022-09-09T11:22:07;4.93;;;0.80;;
9906;SDS011;4992;51.628;6.664;2022-09-09T11:24:53;5.05;;;1.27;;
9906;SDS011;4992;51.628;6.664;2022-09-09T11:27:31;3.88;;;0.73;;
9906;SDS011;4992;51.628;6.664;2022-09-09T11:35:24;3.05;;;0.80;;
9906;SDS011;4992;51.628;6.664;2022-09-09T11:38:19;3.05;;;0.80;;
9906;SDS011;4992;51.628;6.664;2022-09-09T11:41:10;2.72;;;0.43;;
9906;SDS011;4992;51.628;6.664;2022-09-09T11:46:12;3.00;;;1.00;;
9906;SDS011;4992;51.628;6.664;2022-09-09T11:59:02;2.05;;;1.00;;
9906;SDS011;4992;51.628;6.664;2022-09-09T12:01:37;5.07;;;1.45;;
9906;SDS011;4992;51.628;6.664;2022-09-09T12:06:51;4.05;;;0.95;;
9906;SDS011;4992;51.628;6.664;2022-09-09T12:09:43;1.30;;;0.68;;
9906;SDS011;4992;51.628;6.664;2022-09-09T12:17:09;3.17;;;1.10;;
9906;SDS011;4992;51.628;6.664;2022-09-09T12:19:38;2.25;;;0.80;;
9906;SDS011;4992;51.628;6.664;2022-09-09T12:22:06;4.15;;;0.70;;
9906;SDS011;4992;51.628;6.664;2022-09-09T12:24:42;2.13;;;0.60;;
9906;SDS011;4992;51.628;6.664;2022-09-09T12:27:22;2.65;;;0.50;;
9906;SDS011;4992;51.628;6.664;2022-09-09T12:32:27;2.75;;;0.50;;
9906;SDS011;4992;51.628;6.664;2022-09-09T12:34:59;2.67;;;0.40;;
9906;SDS011;4992;51.628;6.664;2022-09-09T12:37:44;1.55;;;0.60;;
9906;SDS011;4992;51.628;6.664;2022-09-09T12:40:24;6.03;;;0.95;;
9906;SDS011;4992;51.628;6.664;2022-09-09T12:42:54;5.55;;;0.90;;
9906;SDS011;4992;51.628;6.664;2022-09-09T12:45:22;5.47;;;1.08;;
9906;SDS011;4992;51.628;6.664;2022-09-09T12:48:03;3.22;;;0.50;;
9906;SDS011;4992;51.628;6.664;2022-09-09T12:50:35;2.10;;;1.00;;
9906;SDS011;4992;51.628;6.664;2022-09-09T12:53:07;3.83;;;0.80;;
9906;SDS011;4992;51.628;6.664;2022-09-09T12:55:59;3.35;;;1.10;;
9906;SDS011;4992;51.628;6.664;2022-09-09T12:58:27;2.33;;;0.80;;
9906;SDS011;4992;51.628;6.664;2022-09-09T13:00:57;1.48;;;0.70;;
9906;SDS011;4992;51.628;6.664;2022-09-09T13:03:24;4.78;;;1.23;;
9906;SDS011;4992;51.628;6.664;2022-09-09T13:05:50;3.08;;;1.25;;
9906;SDS011;4992;51.628;6.664;2022-09-09T13:08:18;2.38;;;1.67;;
9906;SDS011;4992;51.628;6.664;2022-09-09T13:10:50;5.40;;;1.65;;
9906;SDS011;4992;51.628;6.664;2022-09-09T13:13:21;4.53;;;1.65;;
9906;SDS011;4992;51.628;6.664;2022-09-09T13:15:58;3.67;;;1.98;;
9906;SDS011;4992;51.628;6.664;2022-09-09T13:18:29;2.30;;;0.95;;
9906;SDS011;4992;51.628;6.664;2022-09-09T13:20:58;3.97;;;0.90;;
9906;SDS011;4992;51.628;6.664;2022-09-09T13:23:29;3.65;;;1.35;;
9906;SDS011;4992;51.628;6.664;2022-09-09T13:26:04;3.88;;;1.20;;
9906;SDS011;4992;51.628;6.664;2022-09-09T13:28:47;2.45;;;0.95;;
9906;SDS011;4992;51.628;6.664;2022-09-09T13:34:25;3.38;;;0.63;;
9906;SDS011;4992;51.628;6.664;2022-09-09T13:36:54;3.40;;;0.68;;
9906;SDS011;4992;51.628;6.664;2022-09-09T13:39:32;3.67;;;0.80;;
9906;SDS011;4992;51.628;6.664;2022-09-09T13:41:59;2.97;;;0.60;;
9906;SDS011;4992;51.628;6.664;2022-09-09T13:44:28;0.98;;;0.38;;
9906;SDS011;4992;51.628;6.664;2022-09-09T13:47:01;3.33;;;0.73;;
9906;SDS011;4992;51.628;6.664;2022-09-09T13:49:28;2.80;;;0.80;;
9906;SDS011;4992;51.628;6.664;2022-09-09T13:52:04;1.65;;;0.65;;
9906;SDS011;4992;51.628;6.664;2022-09-09T13:54:34;3.15;;;0.70;;
9906;SDS011;4992;51.628;6.664;2022-09-09T13:57:00;1.52;;;0.52;;
9906;SDS011;4992;51.628;6.664;2022-09-09T13:59:26;1.52;;;0.70;;
9906;SDS011;4992;51.628;6.664;2022-09-09T14:01:52;3.05;;;0.70;;
9906;SDS011;4992;51.628;6.664;2022-09-09T14:04:18;1.40;;;0.80;;
9906;SDS011;4992;51.628;6.664;2022-09-09T14:06:46;3.33;;;0.57;;
9906;SDS011;4992;51.628;6.664;2022-09-09T14:09:12;2.75;;;0.73;;
9906;SDS011;4992;51.628;6.664;2022-09-09T14:11:39;1.65;;;0.70;;
9906;SDS011;4992;51.628;6.664;2022-09-09T14:14:06;2.20;;;0.80;;
9906;SDS011;4992;51.628;6.664;2022-09-09T14:16:31;2.42;;;0.95;;
9906;SDS011;4992;51.628;6.664;2022-09-09T14:18:57;3.15;;;0.90;;
9906;SDS011;4992;51.628;6.664;2022-09-09T14:21:24;1.98;;;0.68;;
9906;SDS011;4992;51.628;6.664;2022-09-09T14:23:50;1.55;;;0.70;;
9906;SDS011;4992;51.628;6.664;2022-09-09T14:26:17;1.35;;;0.50;;
9906;SDS011;4992;51.628;6.664;2022-09-09T14:28:43;4.15;;;0.80;;
9906;SDS011;4992;51.628;6.664;2022-09-09T14:31:10;1.63;;;1.00;;
9906;SDS011;4992;51.628;6.664;2022-09-09T14:33:38;3.38;;;0.85;;
9906;SDS011;4992;51.628;6.664;2022-09-09T14:36:04;2.67;;;0.88;;
9906;SDS011;4992;51.628;6.664;2022-09-09T14:38:30;4.57;;;0.55;;
9906;SDS011;4992;51.628;6.664;2022-09-09T14:40:58;3.90;;;0.73;;
9906;SDS011;4992;51.628;6.664;2022-09-09T14:43:28;2.42;;;0.80;;
9906;SDS011;4992;51.628;6.664;2022-09-09T14:45:55;2.03;;;0.85;;
9906;SDS011;4992;51.628;6.664;2022-09-09T14:48:20;2.03;;;1.00;;
9906;SDS011;4992;51.628;6.664;2022-09-09T14:50:46;5.38;;;0.90;;
9906;SDS011;4992;51.628;6.664;2022-09-09T14:53:12;3.65;;;0.68;;
9906;SDS011;4992;51.628;6.664;2022-09-09T14:55:37;1.27;;;0.55;;
9906;SDS011;4992;51.628;6.664;2022-09-09T14:58:03;1.80;;;1.00;;
9906;SDS011;4992;51.628;6.664;2022-09-09T15:00:30;2.72;;;0.60;;
9906;SDS011;4992;51.628;6.664;2022-09-09T15:02:55;3.65;;;0.98;;
9906;SDS011;4992;51.628;6.664;2022-09-09T15:05:21;1.48;;;0.52;;
9906;SDS011;4992;51.628;6.664;2022-09-09T15:07:49;1.55;;;0.73;;
9906;SDS011;4992;51.628;6.664;2022-09-09T15:10:14;3.25;;;0.80;;
9906;SDS011;4992;51.628;6.664;2022-09-09T15:12:42;3.33;;;0.90;;
9906;SDS011;4992;51.628;6.664;2022-09-09T15:15:08;1.67;;;0.75;;
9906;SDS011;4992;51.628;6.664;2022-09-09T15:17:33;3.88;;;0.80;;
9906;SDS011;4992;51.628;6.664;2022-09-09T15:20:01;1.60;;;0.70;;
9906;SDS011;4992;51.628;6.664;2022-09-09T15:22:27;5.05;;;0.80;;
9906;SDS011;4992;51.628;6.664;2022-09-09T15:24:53;2.63;;;0.88;;
9906;SDS011;4992;51.628;6.664;2022-09-09T15:27:19;3.58;;;1.00;;
9906;SDS011;4992;51.628;6.664;2022-09-09T15:29:44;3.38;;;0.90;;
9906;SDS011;4992;51.628;6.664;2022-09-09T15:32:10;4.25;;;1.15;;
9906;SDS011;4992;51.628;6.664;2022-09-09T15:34:35;2.38;;;0.80;;
9906;SDS011;4992;51.628;6.664;2022-09-09T15:37:01;5.00;;;1.05;;
9906;SDS011;4992;51.628;6.664;2022-09-09T15:39:27;4.35;;;0.82;;
9906;SDS011;4992;51.628;6.664;2022-09-09T15:41:53;2.40;;;0.88;;
9906;SDS011;4992;51.628;6.664;2022-09-09T15:44:18;2.22;;;1.10;;
9906;SDS011;4992;51.628;6.664;2022-09-09T15:46:45;1.88;;;0.70;;
9906;SDS011;4992;51.628;6.664;2022-09-09T15:51:43;2.42;;;0.80;;
9906;SDS011;4992;51.628;6.664;2022-09-09T15:54:11;3.67;;;0.88;;
9906;SDS011;4992;51.628;6.664;2022-09-09T15:56:39;2.97;;;1.30;;
9906;SDS011;4992;51.628;6.664;2022-09-09T15:59:05;2.65;;;1.10;;
9906;SDS011;4992;51.628;6.664;2022-09-09T16:01:31;2.15;;;0.90;;
9906;SDS011;4992;51.628;6.664;2022-09-09T16:03:58;1.88;;;0.90;;
9906;SDS011;4992;51.628;6.664;2022-09-09T16:06:25;2.75;;;0.68;;
9906;SDS011;4992;51.628;6.664;2022-09-09T16:08:53;3.05;;;1.33;;
9906;SDS011;4992;51.628;6.664;2022-09-09T16:11:21;4.80;;;3.03;;
9906;SDS011;4992;51.628;6.664;2022-09-09T16:13:48;2.28;;;0.88;;
9906;SDS011;4992;51.628;6.664;2022-09-09T16:16:15;3.83;;;0.90;;
9906;SDS011;4992;51.628;6.664;2022-09-09T16:18:45;1.77;;;1.00;;
9906;SDS011;4992;51.628;6.664;2022-09-09T16:21:16;2.20;;;1.02;;
9906;SDS011;4992;51.628;6.664;2022-09-09T16:23:49;3.92;;;1.45;;
9906;SDS011;4992;51.628;6.664;2022-09-09T16:26:16;5.18;;;1.00;;
9906;SDS011;4992;51.628;6.664;2022-09-09T16:28:42;3.55;;;1.63;;
9906;SDS011;4992;51.628;6.664;2022-09-09T16:31:09;2.97;;;1.15;;
9906;SDS011;4992;51.628;6.664;2022-09-09T16:33:38;3.65;;;1.00;;
9906;SDS011;4992;51.628;6.664;2022-09-09T16:36:08;2.70;;;1.10;;
9906;SDS011;4992;51.628;6.664;2022-09-09T16:38:35;2.35;;;0.95;;
9906;SDS011;4992;51.628;6.664;2022-09-09T16:41:01;2.47;;;0.80;;
9906;SDS011;4992;51.628;6.664;2022-09-09T16:43:30;3.60;;;1.17;;
9906;SDS011;4992;51.628;6.664;2022-09-09T16:45:55;2.10;;;1.20;;
9906;SDS011;4992;51.628;6.664;2022-09-09T16:48:21;1.63;;;1.05;;
9906;SDS011;4992;51.628;6.664;2022-09-09T16:50:46;4.90;;;1.02;;
9906;SDS011;4992;51.628;6.664;2022-09-09T16:53:12;1.98;;;1.20;;
9906;SDS011;4992;51.628;6.664;2022-09-09T16:55:39;2.25;;;1.15;;
9906;SDS011;4992;51.628;6.664;2022-09-09T16:58:05;3.58;;;1.35;;
9906;SDS011;4992;51.628;6.664;2022-09-09T17:00:31;3.03;;;1.20;;
9906;SDS011;4992;51.628;6.664;2022-09-09T17:02:57;1.45;;;0.82;;
9906;SDS011;4992;51.628;6.664;2022-09-09T17:05:23;2.42;;;1.27;;
9906;SDS011;4992;51.628;6.664;2022-09-09T17:07:50;2.17;;;0.90;;
9906;SDS011;4992;51.628;6.664;2022-09-09T17:10:16;3.58;;;1.00;;
9906;SDS011;4992;51.628;6.664;2022-09-09T17:12:41;2.30;;;0.98;;
9906;SDS011;4992;51.628;6.664;2022-09-09T17:15:07;5.15;;;1.27;;
9906;SDS011;4992;51.628;6.664;2022-09-09T17:17:33;2.55;;;1.55;;
9906;SDS011;4992;51.628;6.664;2022-09-09T17:19:59;3.33;;;1.30;;
9906;SDS011;4992;51.628;6.664;2022-09-09T17:22:27;4.13;;;1.38;;